sensor_id;sensor_type;location;lat;lon;timestamp;P1;durP1;ratioP1;P2;durP2;ratioP2
53269;SDS011;39159;45.634;9.420;2023-03-04T00:01:29;45.78;;;25.23;;
53269;SDS011;39159;45.634;9.420;2023-03-04T00:03:54;43.33;;;25.40;;
53269;SDS011;39159;45.634;9.420;2023-03-04T00:06:20;41.20;;;24.17;;
53269;SDS011;39159;45.634;9.420;2023-03-04T00:08:45;46.05;;;24.55;;
53269;SDS011;39159;45.634;9.420;2023-03-04T00:11:10;46.00;;;23.90;;
53269;SDS011;39159;45.634;9.420;2023-03-04T00:13:36;40.70;;;23.55;;
53269;SDS011;39159;45.634;9.420;2023-03-04T00:16:01;44.92;;;23.90;;
53269;SDS011;39159;45.634;9.420;2023-03-04T00:18:27;39.40;;;22.55;;
53269;SDS011;39159;45.634;9.420;2023-03-04T00:20:52;42.85;;;23.98;;
53269;SDS011;39159;45.634;9.420;2023-03-04T00:23:18;44.72;;;25.10;;
53269;SDS011;39159;45.634;9.420;2023-03-04T00:25:43;51.35;;;26.20;;
53269;SDS011;39159;45.634;9.420;2023-03-04T00:28:08;46.50;;;25.77;;
53269;SDS011;39159;45.634;9.420;2023-03-04T00:30:34;41.33;;;24.83;;
53269;SDS011;39159;45.634;9.420;2023-03-04T00:32:59;36.80;;;22.45;;
53269;SDS011;39159;45.634;9.420;2023-03-04T00:35:25;39.13;;;22.80;;
53269;SDS011;39159;45.634;9.420;2023-03-04T00:37:50;42.83;;;24.08;;
53269;SDS011;39159;45.634;9.420;2023-03-04T00:40:16;44.20;;;24.35;;
53269;SDS011;39159;45.634;9.420;2023-03-04T00:42:41;44.00;;;25.05;;
53269;SDS011;39159;45.634;9.420;2023-03-04T00:45:07;39.65;;;24.30;;
53269;SDS011;39159;45.634;9.420;2023-03-04T00:47:33;39.20;;;24.23;;
53269;SDS011;39159;45.634;9.420;2023-03-04T00:49:58;43.22;;;25.13;;
53269;SDS011;39159;45.634;9.420;2023-03-04T00:52:24;44.13;;;24.20;;
53269;SDS011;39159;45.634;9.420;2023-03-04T00:54:49;41.03;;;24.55;;
53269;SDS011;39159;45.634;9.420;2023-03-04T00:57:14;44.40;;;24.98;;
53269;SDS011;39159;45.634;9.420;2023-03-04T00:59:40;42.33;;;23.55;;
53269;SDS011;39159;45.634;9.420;2023-03-04T01:02:07;42.58;;;23.73;;
53269;SDS011;39159;45.634;9.420;2023-03-04T01:04:33;41.65;;;23.73;;
53269;SDS011;39159;45.634;9.420;2023-03-04T01:06:59;38.25;;;21.65;;
53269;SDS011;39159;45.634;9.420;2023-03-04T01:09:24;43.50;;;23.38;;
53269;SDS011;39159;45.634;9.420;2023-03-04T01:11:50;38.78;;;22.67;;
53269;SDS011;39159;45.634;9.420;2023-03-04T01:14:16;46.95;;;23.73;;
53269;SDS011;39159;45.634;9.420;2023-03-04T01:16:42;43.97;;;22.40;;
53269;SDS011;39159;45.634;9.420;2023-03-04T01:19:08;44.97;;;23.85;;
53269;SDS011;39159;45.634;9.420;2023-03-04T01:21:33;41.20;;;22.65;;
53269;SDS011;39159;45.634;9.420;2023-03-04T01:23:58;40.60;;;21.83;;
53269;SDS011;39159;45.634;9.420;2023-03-04T01:26:24;40.95;;;22.73;;
53269;SDS011;39159;45.634;9.420;2023-03-04T01:28:49;44.95;;;23.98;;
53269;SDS011;39159;45.634;9.420;2023-03-04T01:31:15;41.55;;;22.60;;
53269;SDS011;39159;45.634;9.420;2023-03-04T01:33:40;43.83;;;24.83;;
53269;SDS011;39159;45.634;9.420;2023-03-04T01:36:06;43.70;;;24.10;;
53269;SDS011;39159;45.634;9.420;2023-03-04T01:38:31;46.22;;;24.42;;
53269;SDS011;39159;45.634;9.420;2023-03-04T01:40:57;39.80;;;22.63;;
53269;SDS011;39159;45.634;9.420;2023-03-04T01:43:26;41.80;;;22.52;;
53269;SDS011;39159;45.634;9.420;2023-03-04T01:45:53;42.83;;;22.45;;
53269;SDS011;39159;45.634;9.420;2023-03-04T01:48:21;40.03;;;22.02;;
53269;SDS011;39159;45.634;9.420;2023-03-04T01:50:50;36.75;;;21.60;;
53269;SDS011;39159;45.634;9.420;2023-03-04T01:53:20;41.05;;;22.67;;
53269;SDS011;39159;45.634;9.420;2023-03-04T01:55:51;42.58;;;21.80;;
53269;SDS011;39159;45.634;9.420;2023-03-04T01:58:19;42.55;;;23.77;;
53269;SDS011;39159;45.634;9.420;2023-03-04T02:00:44;42.70;;;22.67;;
53269;SDS011;39159;45.634;9.420;2023-03-04T02:03:12;43.42;;;23.73;;
53269;SDS011;39159;45.634;9.420;2023-03-04T02:05:43;42.50;;;23.25;;
53269;SDS011;39159;45.634;9.420;2023-03-04T02:08:12;49.20;;;24.23;;
53269;SDS011;39159;45.634;9.420;2023-03-04T02:10:39;43.80;;;22.83;;
53269;SDS011;39159;45.634;9.420;2023-03-04T02:13:07;42.80;;;23.02;;
53269;SDS011;39159;45.634;9.420;2023-03-04T02:15:32;45.40;;;24.48;;
53269;SDS011;39159;45.634;9.420;2023-03-04T02:17:58;39.65;;;21.98;;
53269;SDS011;39159;45.634;9.420;2023-03-04T02:20:30;46.05;;;23.17;;
53269;SDS011;39159;45.634;9.420;2023-03-04T02:28:37;44.15;;;22.77;;
53269;SDS011;39159;45.634;9.420;2023-03-04T02:31:03;39.38;;;22.00;;
53269;SDS011;39159;45.634;9.420;2023-03-04T02:33:28;40.17;;;22.58;;
53269;SDS011;39159;45.634;9.420;2023-03-04T02:35:54;47.30;;;23.60;;
53269;SDS011;39159;45.634;9.420;2023-03-04T02:38:20;45.55;;;23.15;;
53269;SDS011;39159;45.634;9.420;2023-03-04T02:40:46;39.08;;;21.30;;
53269;SDS011;39159;45.634;9.420;2023-03-04T02:43:15;37.88;;;21.98;;
53269;SDS011;39159;45.634;9.420;2023-03-04T02:45:48;41.20;;;21.90;;
53269;SDS011;39159;45.634;9.420;2023-03-04T02:48:17;44.05;;;22.50;;
53269;SDS011;39159;45.634;9.420;2023-03-04T02:50:46;39.08;;;21.45;;
53269;SDS011;39159;45.634;9.420;2023-03-04T02:53:14;37.03;;;21.02;;
53269;SDS011;39159;45.634;9.420;2023-03-04T02:55:40;39.22;;;22.17;;
53269;SDS011;39159;45.634;9.420;2023-03-04T02:58:09;43.60;;;22.02;;
53269;SDS011;39159;45.634;9.420;2023-03-04T03:00:35;40.10;;;21.70;;
53269;SDS011;39159;45.634;9.420;2023-03-04T03:03:01;34.60;;;20.25;;
53269;SDS011;39159;45.634;9.420;2023-03-04T03:05:28;39.60;;;20.88;;
53269;SDS011;39159;45.634;9.420;2023-03-04T03:07:55;40.42;;;23.90;;
53269;SDS011;39159;45.634;9.420;2023-03-04T03:10:21;43.53;;;23.85;;
53269;SDS011;39159;45.634;9.420;2023-03-04T03:12:47;44.05;;;21.02;;
53269;SDS011;39159;45.634;9.420;2023-03-04T03:15:12;38.58;;;20.92;;
53269;SDS011;39159;45.634;9.420;2023-03-04T03:17:38;34.08;;;19.95;;
53269;SDS011;39159;45.634;9.420;2023-03-04T03:20:04;38.03;;;21.20;;
53269;SDS011;39159;45.634;9.420;2023-03-04T03:22:30;44.63;;;22.13;;
53269;SDS011;39159;45.634;9.420;2023-03-04T03:24:55;41.28;;;22.55;;
53269;SDS011;39159;45.634;9.420;2023-03-04T03:27:20;39.75;;;22.80;;
53269;SDS011;39159;45.634;9.420;2023-03-04T03:29:46;40.50;;;23.63;;
53269;SDS011;39159;45.634;9.420;2023-03-04T03:32:11;52.60;;;23.55;;
53269;SDS011;39159;45.634;9.420;2023-03-04T03:34:37;42.33;;;22.35;;
53269;SDS011;39159;45.634;9.420;2023-03-04T03:37:02;45.33;;;23.05;;
53269;SDS011;39159;45.634;9.420;2023-03-04T03:39:28;44.83;;;22.27;;
53269;SDS011;39159;45.634;9.420;2023-03-04T03:41:53;46.70;;;23.38;;
53269;SDS011;39159;45.634;9.420;2023-03-04T03:44:18;41.17;;;22.65;;
53269;SDS011;39159;45.634;9.420;2023-03-04T03:46:44;45.30;;;22.40;;
53269;SDS011;39159;45.634;9.420;2023-03-04T03:49:10;44.58;;;22.67;;
53269;SDS011;39159;45.634;9.420;2023-03-04T03:51:36;44.45;;;23.50;;
53269;SDS011;39159;45.634;9.420;2023-03-04T03:54:01;43.28;;;23.13;;
53269;SDS011;39159;45.634;9.420;2023-03-04T03:56:27;43.70;;;22.35;;
53269;SDS011;39159;45.634;9.420;2023-03-04T03:58:52;44.25;;;23.83;;
53269;SDS011;39159;45.634;9.420;2023-03-04T04:01:18;44.35;;;22.77;;
53269;SDS011;39159;45.634;9.420;2023-03-04T04:03:43;40.28;;;21.17;;
53269;SDS011;39159;45.634;9.420;2023-03-04T04:06:08;40.67;;;21.38;;
53269;SDS011;39159;45.634;9.420;2023-03-04T04:08:34;49.28;;;23.25;;
53269;SDS011;39159;45.634;9.420;2023-03-04T04:10:59;45.13;;;22.52;;
53269;SDS011;39159;45.634;9.420;2023-03-04T04:13:25;47.38;;;23.75;;
53269;SDS011;39159;45.634;9.420;2023-03-04T04:15:50;50.38;;;23.75;;
53269;SDS011;39159;45.634;9.420;2023-03-04T04:18:16;43.92;;;22.42;;
53269;SDS011;39159;45.634;9.420;2023-03-04T04:20:42;43.92;;;23.40;;
53269;SDS011;39159;45.634;9.420;2023-03-04T04:23:07;44.90;;;23.00;;
53269;SDS011;39159;45.634;9.420;2023-03-04T04:25:33;48.28;;;22.60;;
53269;SDS011;39159;45.634;9.420;2023-03-04T04:27:58;52.88;;;23.50;;
53269;SDS011;39159;45.634;9.420;2023-03-04T04:30:24;44.33;;;23.08;;
53269;SDS011;39159;45.634;9.420;2023-03-04T04:32:49;50.80;;;25.55;;
53269;SDS011;39159;45.634;9.420;2023-03-04T04:35:15;42.08;;;21.58;;
53269;SDS011;39159;45.634;9.420;2023-03-04T04:37:41;51.38;;;23.77;;
53269;SDS011;39159;45.634;9.420;2023-03-04T04:40:06;48.63;;;24.20;;
53269;SDS011;39159;45.634;9.420;2023-03-04T04:42:32;57.58;;;25.95;;
53269;SDS011;39159;45.634;9.420;2023-03-04T04:44:57;58.03;;;26.15;;
53269;SDS011;39159;45.634;9.420;2023-03-04T04:47:22;57.08;;;26.73;;
53269;SDS011;39159;45.634;9.420;2023-03-04T04:49:48;56.20;;;26.52;;
53269;SDS011;39159;45.634;9.420;2023-03-04T04:52:13;59.65;;;27.92;;
53269;SDS011;39159;45.634;9.420;2023-03-04T04:54:39;56.08;;;26.98;;
53269;SDS011;39159;45.634;9.420;2023-03-04T04:57:04;61.65;;;27.90;;
53269;SDS011;39159;45.634;9.420;2023-03-04T04:59:29;55.50;;;26.77;;
53269;SDS011;39159;45.634;9.420;2023-03-04T05:01:55;57.55;;;28.02;;
53269;SDS011;39159;45.634;9.420;2023-03-04T05:04:20;53.92;;;26.30;;
53269;SDS011;39159;45.634;9.420;2023-03-04T05:06:46;55.33;;;26.63;;
53269;SDS011;39159;45.634;9.420;2023-03-04T05:09:11;52.67;;;27.10;;
53269;SDS011;39159;45.634;9.420;2023-03-04T05:11:37;52.65;;;26.75;;
53269;SDS011;39159;45.634;9.420;2023-03-04T05:14:02;50.97;;;26.00;;
53269;SDS011;39159;45.634;9.420;2023-03-04T05:16:28;51.95;;;25.63;;
53269;SDS011;39159;45.634;9.420;2023-03-04T05:18:53;51.75;;;26.30;;
53269;SDS011;39159;45.634;9.420;2023-03-04T05:21:19;48.67;;;25.35;;
53269;SDS011;39159;45.634;9.420;2023-03-04T05:23:44;54.28;;;26.33;;
53269;SDS011;39159;45.634;9.420;2023-03-04T05:26:11;47.65;;;25.73;;
53269;SDS011;39159;45.634;9.420;2023-03-04T05:28:39;46.33;;;24.88;;
53269;SDS011;39159;45.634;9.420;2023-03-04T05:31:04;57.08;;;25.77;;
53269;SDS011;39159;45.634;9.420;2023-03-04T05:33:30;50.92;;;27.27;;
53269;SDS011;39159;45.634;9.420;2023-03-04T05:35:56;52.90;;;26.80;;
53269;SDS011;39159;45.634;9.420;2023-03-04T05:38:22;48.75;;;25.73;;
53269;SDS011;39159;45.634;9.420;2023-03-04T05:40:48;49.53;;;26.17;;
53269;SDS011;39159;45.634;9.420;2023-03-04T05:43:19;49.88;;;24.92;;
53269;SDS011;39159;45.634;9.420;2023-03-04T05:45:47;47.65;;;25.83;;
53269;SDS011;39159;45.634;9.420;2023-03-04T05:48:13;46.63;;;24.98;;
53269;SDS011;39159;45.634;9.420;2023-03-04T05:50:38;48.88;;;25.33;;
53269;SDS011;39159;45.634;9.420;2023-03-04T05:53:04;49.90;;;26.70;;
53269;SDS011;39159;45.634;9.420;2023-03-04T05:55:29;50.15;;;25.63;;
53269;SDS011;39159;45.634;9.420;2023-03-04T05:57:55;46.58;;;25.55;;
53269;SDS011;39159;45.634;9.420;2023-03-04T06:00:22;51.00;;;26.08;;
53269;SDS011;39159;45.634;9.420;2023-03-04T06:02:47;50.63;;;26.45;;
53269;SDS011;39159;45.634;9.420;2023-03-04T06:05:13;46.78;;;26.08;;
53269;SDS011;39159;45.634;9.420;2023-03-04T06:07:40;48.92;;;26.27;;
53269;SDS011;39159;45.634;9.420;2023-03-04T06:10:10;54.88;;;26.85;;
53269;SDS011;39159;45.634;9.420;2023-03-04T06:12:38;50.88;;;26.50;;
53269;SDS011;39159;45.634;9.420;2023-03-04T06:15:04;51.47;;;26.73;;
53269;SDS011;39159;45.634;9.420;2023-03-04T06:17:30;50.22;;;27.25;;
53269;SDS011;39159;45.634;9.420;2023-03-04T06:19:55;58.20;;;26.02;;
53269;SDS011;39159;45.634;9.420;2023-03-04T06:22:21;59.42;;;28.05;;
53269;SDS011;39159;45.634;9.420;2023-03-04T06:24:46;54.20;;;25.10;;
53269;SDS011;39159;45.634;9.420;2023-03-04T06:27:12;57.30;;;26.73;;
53269;SDS011;39159;45.634;9.420;2023-03-04T06:29:37;51.80;;;27.25;;
53269;SDS011;39159;45.634;9.420;2023-03-04T06:32:03;54.22;;;26.88;;
53269;SDS011;39159;45.634;9.420;2023-03-04T06:34:29;49.20;;;26.23;;
53269;SDS011;39159;45.634;9.420;2023-03-04T06:36:54;47.45;;;25.52;;
53269;SDS011;39159;45.634;9.420;2023-03-04T06:39:20;50.88;;;26.05;;
53269;SDS011;39159;45.634;9.420;2023-03-04T06:41:45;48.97;;;25.80;;
53269;SDS011;39159;45.634;9.420;2023-03-04T06:44:11;44.88;;;24.60;;
53269;SDS011;39159;45.634;9.420;2023-03-04T06:46:36;43.58;;;24.02;;
53269;SDS011;39159;45.634;9.420;2023-03-04T06:49:02;48.67;;;24.70;;
53269;SDS011;39159;45.634;9.420;2023-03-04T06:51:27;46.47;;;25.42;;
53269;SDS011;39159;45.634;9.420;2023-03-04T06:53:53;46.05;;;24.65;;
53269;SDS011;39159;45.634;9.420;2023-03-04T06:56:19;51.60;;;24.92;;
53269;SDS011;39159;45.634;9.420;2023-03-04T06:58:44;44.22;;;23.70;;
53269;SDS011;39159;45.634;9.420;2023-03-04T07:01:11;46.38;;;24.58;;
53269;SDS011;39159;45.634;9.420;2023-03-04T07:03:41;46.95;;;24.63;;
53269;SDS011;39159;45.634;9.420;2023-03-04T07:06:08;43.00;;;24.58;;
53269;SDS011;39159;45.634;9.420;2023-03-04T07:08:34;48.25;;;25.50;;
53269;SDS011;39159;45.634;9.420;2023-03-04T07:11:00;41.65;;;23.58;;
53269;SDS011;39159;45.634;9.420;2023-03-04T07:13:25;46.78;;;24.58;;
53269;SDS011;39159;45.634;9.420;2023-03-04T07:15:51;46.50;;;24.85;;
53269;SDS011;39159;45.634;9.420;2023-03-04T07:18:17;46.50;;;23.70;;
53269;SDS011;39159;45.634;9.420;2023-03-04T07:20:42;48.70;;;24.88;;
53269;SDS011;39159;45.634;9.420;2023-03-04T07:23:08;46.58;;;24.33;;
53269;SDS011;39159;45.634;9.420;2023-03-04T07:25:33;49.03;;;25.35;;
53269;SDS011;39159;45.634;9.420;2023-03-04T07:27:59;44.85;;;24.52;;
53269;SDS011;39159;45.634;9.420;2023-03-04T07:30:24;48.63;;;25.42;;
53269;SDS011;39159;45.634;9.420;2023-03-04T07:32:50;48.03;;;25.02;;
53269;SDS011;39159;45.634;9.420;2023-03-04T07:35:15;47.10;;;24.10;;
53269;SDS011;39159;45.634;9.420;2023-03-04T07:37:40;42.60;;;23.40;;
53269;SDS011;39159;45.634;9.420;2023-03-04T07:40:06;47.25;;;25.02;;
53269;SDS011;39159;45.634;9.420;2023-03-04T07:42:32;47.10;;;24.95;;
53269;SDS011;39159;45.634;9.420;2023-03-04T07:44:58;48.88;;;25.15;;
53269;SDS011;39159;45.634;9.420;2023-03-04T07:47:25;46.13;;;25.40;;
53269;SDS011;39159;45.634;9.420;2023-03-04T07:49:51;43.72;;;24.08;;
53269;SDS011;39159;45.634;9.420;2023-03-04T07:52:17;46.83;;;25.60;;
53269;SDS011;39159;45.634;9.420;2023-03-04T07:54:43;52.63;;;24.83;;
53269;SDS011;39159;45.634;9.420;2023-03-04T07:57:08;46.03;;;25.38;;
53269;SDS011;39159;45.634;9.420;2023-03-04T07:59:34;45.88;;;24.90;;
53269;SDS011;39159;45.634;9.420;2023-03-04T08:01:59;45.28;;;25.17;;
53269;SDS011;39159;45.634;9.420;2023-03-04T08:04:24;45.58;;;25.63;;
53269;SDS011;39159;45.634;9.420;2023-03-04T08:06:50;45.65;;;25.63;;
53269;SDS011;39159;45.634;9.420;2023-03-04T08:09:15;47.03;;;25.83;;
53269;SDS011;39159;45.634;9.420;2023-03-04T08:11:41;41.45;;;24.95;;
53269;SDS011;39159;45.634;9.420;2023-03-04T08:14:07;44.85;;;25.58;;
53269;SDS011;39159;45.634;9.420;2023-03-04T08:16:33;41.85;;;23.65;;
53269;SDS011;39159;45.634;9.420;2023-03-04T08:19:00;51.70;;;27.05;;
53269;SDS011;39159;45.634;9.420;2023-03-04T08:21:26;51.47;;;25.63;;
53269;SDS011;39159;45.634;9.420;2023-03-04T08:23:52;48.03;;;25.17;;
53269;SDS011;39159;45.634;9.420;2023-03-04T08:26:28;47.25;;;25.02;;
53269;SDS011;39159;45.634;9.420;2023-03-04T08:28:59;44.22;;;26.08;;
53269;SDS011;39159;45.634;9.420;2023-03-04T08:31:25;47.58;;;27.50;;
53269;SDS011;39159;45.634;9.420;2023-03-04T08:33:51;47.13;;;27.15;;
53269;SDS011;39159;45.634;9.420;2023-03-04T08:36:16;44.95;;;27.48;;
53269;SDS011;39159;45.634;9.420;2023-03-04T08:38:42;46.25;;;26.50;;
53269;SDS011;39159;45.634;9.420;2023-03-04T08:41:08;50.28;;;27.67;;
53269;SDS011;39159;45.634;9.420;2023-03-04T08:43:33;47.30;;;26.92;;
53269;SDS011;39159;45.634;9.420;2023-03-04T08:45:59;43.78;;;24.92;;
53269;SDS011;39159;45.634;9.420;2023-03-04T08:48:25;42.38;;;26.63;;
53269;SDS011;39159;45.634;9.420;2023-03-04T08:50:50;40.78;;;24.58;;
53269;SDS011;39159;45.634;9.420;2023-03-04T08:53:17;39.47;;;24.90;;
53269;SDS011;39159;45.634;9.420;2023-03-04T08:55:44;42.75;;;25.70;;
53269;SDS011;39159;45.634;9.420;2023-03-04T08:58:09;39.85;;;23.98;;
53269;SDS011;39159;45.634;9.420;2023-03-04T09:00:36;39.38;;;23.92;;
53269;SDS011;39159;45.634;9.420;2023-03-04T09:03:03;44.05;;;24.85;;
53269;SDS011;39159;45.634;9.420;2023-03-04T09:05:29;40.67;;;24.63;;
53269;SDS011;39159;45.634;9.420;2023-03-04T09:07:56;40.17;;;24.63;;
53269;SDS011;39159;45.634;9.420;2023-03-04T09:10:22;42.17;;;25.55;;
53269;SDS011;39159;45.634;9.420;2023-03-04T09:12:48;43.92;;;24.80;;
53269;SDS011;39159;45.634;9.420;2023-03-04T09:15:13;39.97;;;23.95;;
53269;SDS011;39159;45.634;9.420;2023-03-04T09:17:39;39.83;;;24.75;;
53269;SDS011;39159;45.634;9.420;2023-03-04T09:20:05;40.10;;;25.15;;
53269;SDS011;39159;45.634;9.420;2023-03-04T09:22:33;44.28;;;25.58;;
53269;SDS011;39159;45.634;9.420;2023-03-04T09:24:59;39.50;;;25.50;;
53269;SDS011;39159;45.634;9.420;2023-03-04T09:27:25;44.25;;;26.52;;
53269;SDS011;39159;45.634;9.420;2023-03-04T09:29:51;39.97;;;25.27;;
53269;SDS011;39159;45.634;9.420;2023-03-04T09:32:16;45.15;;;26.88;;
53269;SDS011;39159;45.634;9.420;2023-03-04T09:34:42;40.28;;;26.40;;
53269;SDS011;39159;45.634;9.420;2023-03-04T09:37:07;44.75;;;27.23;;
53269;SDS011;39159;45.634;9.420;2023-03-04T09:39:32;41.88;;;26.83;;
53269;SDS011;39159;45.634;9.420;2023-03-04T09:41:58;38.95;;;25.33;;
53269;SDS011;39159;45.634;9.420;2023-03-04T09:44:29;40.83;;;26.63;;
53269;SDS011;39159;45.634;9.420;2023-03-04T09:46:59;39.97;;;25.23;;
53269;SDS011;39159;45.634;9.420;2023-03-04T09:49:28;42.35;;;27.30;;
53269;SDS011;39159;45.634;9.420;2023-03-04T09:52:02;43.67;;;27.48;;
53269;SDS011;39159;45.634;9.420;2023-03-04T09:54:52;43.85;;;27.25;;
53269;SDS011;39159;45.634;9.420;2023-03-04T09:57:50;44.50;;;27.08;;
53269;SDS011;39159;45.634;9.420;2023-03-04T10:00:34;44.20;;;27.58;;
53269;SDS011;39159;45.634;9.420;2023-03-04T10:05:38;45.90;;;26.40;;
53269;SDS011;39159;45.634;9.420;2023-03-04T10:11:22;40.70;;;26.55;;
53269;SDS011;39159;45.634;9.420;2023-03-04T10:16:48;44.75;;;28.38;;
53269;SDS011;39159;45.634;9.420;2023-03-04T10:19:27;44.30;;;27.83;;
53269;SDS011;39159;45.634;9.420;2023-03-04T10:22:00;39.45;;;26.55;;
53269;SDS011;39159;45.634;9.420;2023-03-04T10:24:38;44.10;;;28.25;;
53269;SDS011;39159;45.634;9.420;2023-03-04T10:27:04;43.60;;;27.02;;
53269;SDS011;39159;45.634;9.420;2023-03-04T10:29:34;44.53;;;28.25;;
53269;SDS011;39159;45.634;9.420;2023-03-04T10:32:00;43.92;;;27.80;;
53269;SDS011;39159;45.634;9.420;2023-03-04T10:34:26;40.72;;;28.20;;
53269;SDS011;39159;45.634;9.420;2023-03-04T10:39:31;46.90;;;27.42;;
53269;SDS011;39159;45.634;9.420;2023-03-04T10:44:42;40.00;;;26.45;;
53269;SDS011;39159;45.634;9.420;2023-03-04T10:47:15;53.55;;;29.30;;
53269;SDS011;39159;45.634;9.420;2023-03-04T10:50:00;38.88;;;26.10;;
53269;SDS011;39159;45.634;9.420;2023-03-04T10:54:55;48.67;;;29.02;;
53269;SDS011;39159;45.634;9.420;2023-03-04T10:57:25;46.90;;;30.40;;
53269;SDS011;39159;45.634;9.420;2023-03-04T10:59:56;46.72;;;28.42;;
53269;SDS011;39159;45.634;9.420;2023-03-04T11:02:45;41.50;;;27.42;;
53269;SDS011;39159;45.634;9.420;2023-03-04T11:05:16;43.75;;;28.73;;
53269;SDS011;39159;45.634;9.420;2023-03-04T11:07:45;42.25;;;26.15;;
53269;SDS011;39159;45.634;9.420;2023-03-04T11:12:59;42.33;;;25.98;;
53269;SDS011;39159;45.634;9.420;2023-03-04T11:15:26;41.45;;;26.67;;
53269;SDS011;39159;45.634;9.420;2023-03-04T11:17:58;39.08;;;25.10;;
53269;SDS011;39159;45.634;9.420;2023-03-04T11:20:40;43.55;;;27.73;;
53269;SDS011;39159;45.634;9.420;2023-03-04T11:23:13;40.33;;;26.60;;
53269;SDS011;39159;45.634;9.420;2023-03-04T11:25:48;43.80;;;25.88;;
53269;SDS011;39159;45.634;9.420;2023-03-04T11:28:21;38.50;;;26.60;;
53269;SDS011;39159;45.634;9.420;2023-03-04T11:31:03;43.33;;;26.83;;
53269;SDS011;39159;45.634;9.420;2023-03-04T11:36:56;39.75;;;25.08;;
53269;SDS011;39159;45.634;9.420;2023-03-04T11:44:49;43.70;;;27.73;;
53269;SDS011;39159;45.634;9.420;2023-03-04T11:47:25;40.83;;;27.92;;
53269;SDS011;39159;45.634;9.420;2023-03-04T11:50:07;40.35;;;26.35;;
53269;SDS011;39159;45.634;9.420;2023-03-04T11:58:15;49.10;;;28.17;;
53269;SDS011;39159;45.634;9.420;2023-03-04T12:09:07;45.80;;;27.58;;
53269;SDS011;39159;45.634;9.420;2023-03-04T12:12:18;40.75;;;26.98;;
53269;SDS011;39159;45.634;9.420;2023-03-04T12:15:00;42.85;;;28.70;;
53269;SDS011;39159;45.634;9.420;2023-03-04T12:44:27;48.95;;;30.95;;
53269;SDS011;39159;45.634;9.420;2023-03-04T12:49:59;46.85;;;30.65;;
53269;SDS011;39159;45.634;9.420;2023-03-04T12:55:28;43.92;;;30.05;;
53269;SDS011;39159;45.634;9.420;2023-03-04T12:58:03;47.90;;;28.60;;
53269;SDS011;39159;45.634;9.420;2023-03-04T13:00:47;74.70;;;29.58;;
53269;SDS011;39159;45.634;9.420;2023-03-04T13:03:23;44.03;;;29.02;;
53269;SDS011;39159;45.634;9.420;2023-03-04T13:06:06;46.20;;;28.60;;
53269;SDS011;39159;45.634;9.420;2023-03-04T13:08:53;39.17;;;26.63;;
53269;SDS011;39159;45.634;9.420;2023-03-04T13:24:50;44.15;;;29.00;;
53269;SDS011;39159;45.634;9.420;2023-03-04T13:38:31;46.20;;;29.50;;
53269;SDS011;39159;45.634;9.420;2023-03-04T13:43:27;49.13;;;30.63;;
53269;SDS011;39159;45.634;9.420;2023-03-04T13:49:04;43.78;;;29.13;;
53269;SDS011;39159;45.634;9.420;2023-03-04T13:51:40;46.75;;;28.38;;
53269;SDS011;39159;45.634;9.420;2023-03-04T13:57:30;46.80;;;30.02;;
53269;SDS011;39159;45.634;9.420;2023-03-04T13:59:44;46.53;;;30.35;;
53269;SDS011;39159;45.634;9.420;2023-03-04T14:04:44;42.78;;;29.60;;
53269;SDS011;39159;45.634;9.420;2023-03-04T14:12:17;53.08;;;30.85;;
53269;SDS011;39159;45.634;9.420;2023-03-04T14:17:15;49.67;;;32.08;;
53269;SDS011;39159;45.634;9.420;2023-03-04T14:19:44;47.50;;;31.13;;
53269;SDS011;39159;45.634;9.420;2023-03-04T14:22:24;45.95;;;29.75;;
53269;SDS011;39159;45.634;9.420;2023-03-04T14:25:03;45.72;;;28.75;;
53269;SDS011;39159;45.634;9.420;2023-03-04T14:27:46;49.17;;;30.77;;
53269;SDS011;39159;45.634;9.420;2023-03-04T14:32:51;43.47;;;30.23;;
53269;SDS011;39159;45.634;9.420;2023-03-04T14:35:27;45.90;;;29.60;;
53269;SDS011;39159;45.634;9.420;2023-03-04T14:40:32;45.40;;;28.70;;
53269;SDS011;39159;45.634;9.420;2023-03-04T14:43:10;45.08;;;27.48;;
53269;SDS011;39159;45.634;9.420;2023-03-04T14:45:42;42.35;;;28.10;;
53269;SDS011;39159;45.634;9.420;2023-03-04T14:48:14;45.70;;;29.25;;
53269;SDS011;39159;45.634;9.420;2023-03-04T14:50:47;49.45;;;27.40;;
53269;SDS011;39159;45.634;9.420;2023-03-04T14:53:15;42.42;;;28.10;;
53269;SDS011;39159;45.634;9.420;2023-03-04T14:58:24;39.63;;;26.92;;
53269;SDS011;39159;45.634;9.420;2023-03-04T15:01:04;41.30;;;27.35;;
53269;SDS011;39159;45.634;9.420;2023-03-04T15:06:21;38.53;;;26.17;;
53269;SDS011;39159;45.634;9.420;2023-03-04T15:08:56;37.15;;;25.90;;
53269;SDS011;39159;45.634;9.420;2023-03-04T15:11:31;43.55;;;27.17;;
53269;SDS011;39159;45.634;9.420;2023-03-04T15:22:35;37.33;;;26.42;;
53269;SDS011;39159;45.634;9.420;2023-03-04T15:25:20;39.10;;;25.23;;
53269;SDS011;39159;45.634;9.420;2023-03-04T15:27:46;37.78;;;25.88;;
53269;SDS011;39159;45.634;9.420;2023-03-04T15:30:24;42.63;;;26.27;;
53269;SDS011;39159;45.634;9.420;2023-03-04T15:32:55;37.33;;;23.37;;
53269;SDS011;39159;45.634;9.420;2023-03-04T15:35:21;40.65;;;24.67;;
53269;SDS011;39159;45.634;9.420;2023-03-04T15:37:48;38.28;;;25.73;;
53269;SDS011;39159;45.634;9.420;2023-03-04T15:40:24;39.42;;;24.95;;
53269;SDS011;39159;45.634;9.420;2023-03-04T15:42:52;41.17;;;24.80;;
53269;SDS011;39159;45.634;9.420;2023-03-04T15:45:21;36.60;;;23.35;;
53269;SDS011;39159;45.634;9.420;2023-03-04T15:47:52;39.35;;;23.45;;
53269;SDS011;39159;45.634;9.420;2023-03-04T15:50:17;37.40;;;23.92;;
53269;SDS011;39159;45.634;9.420;2023-03-04T15:52:44;40.65;;;24.27;;
53269;SDS011;39159;45.634;9.420;2023-03-04T15:55:13;36.47;;;22.35;;
53269;SDS011;39159;45.634;9.420;2023-03-04T15:57:41;42.70;;;24.75;;
53269;SDS011;39159;45.634;9.420;2023-03-04T16:00:07;38.30;;;23.63;;
53269;SDS011;39159;45.634;9.420;2023-03-04T16:02:35;39.50;;;23.15;;
53269;SDS011;39159;45.634;9.420;2023-03-04T16:05:00;41.50;;;23.98;;
53269;SDS011;39159;45.634;9.420;2023-03-04T16:07:27;38.65;;;24.30;;
53269;SDS011;39159;45.634;9.420;2023-03-04T16:09:55;39.90;;;25.02;;
53269;SDS011;39159;45.634;9.420;2023-03-04T16:12:24;36.13;;;22.33;;
53269;SDS011;39159;45.634;9.420;2023-03-04T16:14:50;38.10;;;22.70;;
53269;SDS011;39159;45.634;9.420;2023-03-04T16:17:16;37.13;;;23.55;;
53269;SDS011;39159;45.634;9.420;2023-03-04T16:19:42;36.28;;;20.83;;
53269;SDS011;39159;45.634;9.420;2023-03-04T16:22:14;37.63;;;22.85;;
53269;SDS011;39159;45.634;9.420;2023-03-04T16:24:41;34.83;;;22.67;;
53269;SDS011;39159;45.634;9.420;2023-03-04T16:27:10;37.47;;;22.63;;
53269;SDS011;39159;45.634;9.420;2023-03-04T16:29:38;40.63;;;23.67;;
53269;SDS011;39159;45.634;9.420;2023-03-04T16:32:03;39.22;;;23.50;;
53269;SDS011;39159;45.634;9.420;2023-03-04T16:34:29;34.92;;;21.77;;
53269;SDS011;39159;45.634;9.420;2023-03-04T16:36:55;38.78;;;22.83;;
53269;SDS011;39159;45.634;9.420;2023-03-04T16:39:21;34.72;;;21.42;;
53269;SDS011;39159;45.634;9.420;2023-03-04T16:41:50;43.00;;;22.70;;
53269;SDS011;39159;45.634;9.420;2023-03-04T16:44:16;38.92;;;24.40;;
53269;SDS011;39159;45.634;9.420;2023-03-04T16:46:42;36.03;;;23.10;;
53269;SDS011;39159;45.634;9.420;2023-03-04T16:49:07;35.08;;;22.05;;